createdAt,value
2017-09-13T00:00:45.040Z,0
2017-09-13T00:01:44.439Z,0
2017-09-13T00:02:44.464Z,0
2017-09-13T00:03:44.780Z,0
2017-09-13T00:05:44.825Z,0
2017-09-13T00:06:44.844Z,0
2017-09-13T00:08:59.819Z,0
2017-09-13T00:09:44.924Z,0
2017-09-13T00:10:45.234Z,0
2017-09-13T00:11:45.269Z,0
2017-09-13T00:12:45.286Z,0
2017-09-13T00:13:45.323Z,0
2017-09-13T00:14:45.012Z,0
2017-09-13T00:15:59.967Z,0
2017-09-13T00:16:45.359Z,0
2017-09-13T00:17:45.403Z,0
2017-09-13T00:18:45.428Z,0
2017-09-13T00:19:45.495Z,0
2017-09-13T00:20:45.139Z,0
2017-09-13T00:21:45.462Z,0
2017-09-13T00:22:45.497Z,0
2017-09-13T00:23:59.831Z,0
2017-09-13T00:24:59.846Z,0
2017-09-13T00:25:45.572Z,0
2017-09-13T00:26:45.604Z,0
2017-09-13T00:27:45.591Z,0
2017-09-13T00:28:45.624Z,0
2017-09-13T00:29:45.021Z,0
2017-09-13T00:30:45.654Z,0
2017-09-13T00:32:45.693Z,0
2017-09-13T00:33:45.739Z,0
2017-09-13T00:34:45.461Z,0
2017-09-13T00:36:00.387Z,0
2017-09-13T00:37:45.516Z,0
2017-09-13T00:38:45.517Z,0
2017-09-13T00:40:00.469Z,0
2017-09-13T00:41:00.185Z,0
2017-09-13T00:41:45.895Z,0
2017-09-13T00:42:45.620Z,0
2017-09-13T00:43:45.941Z,0
2017-09-13T00:44:45.964Z,0
2017-09-13T00:45:45.994Z,0
2017-09-13T00:46:46.004Z,0
2017-09-13T00:47:46.021Z,0
2017-09-13T00:48:46.039Z,0
2017-09-13T00:49:45.764Z,0
2017-09-13T00:50:46.099Z,0
2017-09-13T00:52:00.774Z,0
2017-09-13T00:52:46.135Z,0
2017-09-13T00:53:46.146Z,0
2017-09-13T00:54:46.169Z,0
2017-09-13T00:56:00.863Z,0
2017-09-13T00:56:45.607Z,0
2017-09-13T00:57:45.609Z,0
2017-09-13T00:58:46.258Z,0
2017-09-13T01:00:00.885Z,0
2017-09-13T01:00:46.013Z,0
2017-09-13T01:01:46.323Z,0
2017-09-13T01:02:46.335Z,0
2017-09-13T01:03:46.397Z,0
2017-09-13T01:04:46.382Z,0
2017-09-13T01:05:46.392Z,0
2017-09-13T01:06:46.429Z,0
2017-09-13T01:08:01.107Z,0
2017-09-13T01:08:46.460Z,0
2017-09-13T01:09:46.183Z,0
2017-09-13T01:11:01.128Z,0
2017-09-13T01:12:46.545Z,0
2017-09-13T01:13:46.579Z,0
2017-09-13T01:14:46.281Z,0
2017-09-13T01:15:46.629Z,0
2017-09-13T01:16:46.632Z,0
2017-09-13T01:18:46.677Z,0
2017-09-13T01:19:46.693Z,0
2017-09-13T01:20:46.400Z,0
2017-09-13T01:21:46.746Z,0
2017-09-13T01:22:46.756Z,0
2017-09-13T01:23:46.472Z,0
2017-09-13T01:24:46.794Z,0
2017-09-13T01:25:46.521Z,0
2017-09-13T01:26:46.533Z,0
2017-09-13T01:27:46.555Z,0
2017-09-13T01:28:46.570Z,0
2017-09-13T01:30:01.210Z,0
2017-09-13T01:30:46.614Z,0
2017-09-13T01:31:46.646Z,0
2017-09-13T01:32:46.651Z,0
2017-09-13T01:33:46.993Z,0
2017-09-13T01:35:47.037Z,0
2017-09-13T01:37:01.718Z,0
2017-09-13T01:37:46.764Z,0
2017-09-13T01:38:46.785Z,0
2017-09-13T01:39:47.111Z,0
2017-09-13T01:40:47.134Z,0
2017-09-13T01:41:46.850Z,0
2017-09-13T01:43:47.195Z,0
2017-09-13T01:46:46.937Z,0
2017-09-13T01:47:47.282Z,0
2017-09-13T01:48:47.313Z,0
2017-09-13T01:49:47.318Z,0
2017-09-13T01:50:47.342Z,0
2017-09-13T01:51:47.362Z,0
2017-09-13T01:52:47.391Z,0
2017-09-13T01:53:47.095Z,0
2017-09-13T01:54:47.439Z,0
2017-09-13T01:56:02.087Z,0
2017-09-13T01:56:47.462Z,0
2017-09-13T01:57:47.494Z,0
2017-09-13T01:59:16.749Z,0
2017-09-13T01:59:47.530Z,0
2017-09-13T02:00:47.543Z,0
2017-09-13T02:02:02.178Z,0
2017-09-13T02:02:46.969Z,0
2017-09-13T02:03:47.601Z,0
2017-09-13T02:04:47.343Z,0
2017-09-13T02:05:47.696Z,0
2017-09-13T02:06:47.361Z,0
2017-09-13T02:07:47.373Z,0
2017-09-13T02:08:47.093Z,0
2017-09-13T02:09:47.778Z,0
2017-09-13T02:10:47.788Z,0
2017-09-13T02:11:47.467Z,0
2017-09-13T02:12:47.807Z,0
2017-09-13T02:13:47.816Z,0
2017-09-13T02:16:02.175Z,0
2017-09-13T02:16:47.879Z,0
2017-09-13T02:17:47.884Z,0
2017-09-13T02:18:47.919Z,0
2017-09-13T02:19:47.332Z,0
2017-09-13T02:20:47.330Z,0
2017-09-13T02:21:47.669Z,0
2017-09-13T02:22:47.731Z,0
2017-09-13T02:23:48.019Z,0
2017-09-13T02:25:02.666Z,0
2017-09-13T02:25:48.077Z,0
2017-09-13T02:26:48.079Z,0
2017-09-13T02:27:48.102Z,0
2017-09-13T02:30:02.757Z,0
2017-09-13T02:31:02.798Z,0
2017-09-13T02:31:48.189Z,0
2017-09-13T02:32:47.895Z,0
2017-09-13T02:33:48.236Z,0
2017-09-13T02:34:48.248Z,0
2017-09-13T02:35:47.962Z,0
2017-09-13T02:38:02.930Z,0
2017-09-13T02:38:48.025Z,0
2017-09-13T02:39:48.348Z,0
2017-09-13T02:40:48.371Z,0
2017-09-13T02:42:02.708Z,0
2017-09-13T02:42:48.100Z,0
2017-09-13T02:43:48.439Z,0
2017-09-13T02:44:48.442Z,0
2017-09-13T02:46:03.095Z,0
2017-09-13T02:47:03.106Z,0
2017-09-13T02:47:48.530Z,0
2017-09-13T02:48:48.609Z,0
2017-09-13T02:49:48.554Z,0
2017-09-13T02:50:48.585Z,0
2017-09-13T02:51:48.589Z,0
2017-09-13T02:52:48.617Z,0
2017-09-13T02:53:48.647Z,0
2017-09-13T02:54:48.662Z,0
2017-09-13T02:55:48.370Z,0
2017-09-13T02:56:48.690Z,0
2017-09-13T02:57:48.723Z,0
2017-09-13T02:58:48.753Z,0
2017-09-13T02:59:48.453Z,0
2017-09-13T03:00:48.774Z,0
2017-09-13T03:01:48.489Z,0
2017-09-13T03:02:48.832Z,0
2017-09-13T03:04:03.148Z,0
2017-09-13T03:04:48.542Z,0
2017-09-13T03:05:48.894Z,0
2017-09-13T03:06:48.898Z,0
2017-09-13T03:07:48.945Z,0
2017-09-13T03:08:48.643Z,0
2017-09-13T03:09:48.647Z,0
2017-09-13T03:10:48.988Z,0
2017-09-13T03:11:49.011Z,0
2017-09-13T03:12:49.026Z,0
2017-09-13T03:13:49.085Z,0
2017-09-13T03:14:49.071Z,0
2017-09-13T03:15:48.835Z,0
2017-09-13T03:17:03.417Z,0
2017-09-13T03:18:03.443Z,0
2017-09-13T03:18:48.843Z,0
2017-09-13T03:19:48.859Z,0
2017-09-13T03:21:03.806Z,0
2017-09-13T03:21:48.896Z,0
2017-09-13T03:22:49.245Z,0
2017-09-13T03:23:49.255Z,0
2017-09-13T03:24:48.953Z,0
2017-09-13T03:25:49.288Z,0
2017-09-13T03:26:49.008Z,0
2017-09-13T03:27:49.033Z,0
2017-09-13T03:28:49.042Z,0
2017-09-13T03:29:49.065Z,0
2017-09-13T03:30:49.404Z,0
2017-09-13T03:31:49.436Z,0
2017-09-13T03:32:49.426Z,0
2017-09-13T03:34:04.115Z,0
2017-09-13T03:34:49.160Z,0
2017-09-13T03:35:49.505Z,0
2017-09-13T03:36:49.204Z,0
2017-09-13T03:37:49.531Z,0
2017-09-13T03:38:49.575Z,0
2017-09-13T03:39:49.572Z,0
2017-09-13T03:40:49.610Z,0
2017-09-13T03:41:49.619Z,0
2017-09-13T03:43:04.262Z,0
2017-09-13T03:43:49.658Z,0
2017-09-13T03:44:49.685Z,0
2017-09-13T03:45:49.703Z,0
2017-09-13T03:46:49.089Z,0
2017-09-13T03:47:49.731Z,0
2017-09-13T03:48:49.451Z,0
2017-09-13T03:50:04.087Z,0
2017-09-13T03:50:49.816Z,0
2017-09-13T03:51:49.515Z,0
2017-09-13T03:52:49.856Z,0
2017-09-13T03:53:49.869Z,0
2017-09-13T03:54:49.884Z,0
2017-09-13T03:55:49.897Z,0
2017-09-13T03:56:49.924Z,0
2017-09-13T03:57:49.624Z,0
2017-09-13T03:58:49.961Z,0
2017-09-13T03:59:49.998Z,0
2017-09-13T04:00:49.998Z,0
2017-09-13T04:01:49.723Z,4
2017-09-13T04:03:04.665Z,4
2017-09-13T04:03:50.069Z,0
2017-09-13T04:04:50.085Z,4
2017-09-13T04:06:04.733Z,4
2017-09-13T04:06:50.134Z,4
2017-09-13T04:07:50.146Z,4
2017-09-13T04:08:50.162Z,4
2017-09-13T04:09:50.189Z,8
2017-09-13T04:11:49.943Z,12
2017-09-13T04:12:50.241Z,12
2017-09-13T04:13:50.272Z,16
2017-09-13T04:14:49.984Z,20
2017-09-13T04:16:50.330Z,28
2017-09-13T04:17:50.048Z,32
2017-09-13T04:18:50.394Z,36
2017-09-13T04:19:50.391Z,44
2017-09-13T04:21:05.030Z,52
2017-09-13T04:21:50.438Z,60
2017-09-13T04:22:50.144Z,72
2017-09-13T04:24:04.778Z,88
2017-09-13T04:24:50.504Z,96
2017-09-13T04:25:50.511Z,112
2017-09-13T04:26:50.532Z,128
2017-09-13T04:27:50.566Z,144
2017-09-13T04:28:50.577Z,168
2017-09-13T04:29:50.583Z,188
2017-09-13T04:30:50.312Z,208
2017-09-13T04:33:50.685Z,292
2017-09-13T04:34:50.684Z,332
2017-09-13T04:35:50.716Z,368
2017-09-13T04:36:50.748Z,416
2017-09-13T04:37:50.446Z,472
2017-09-13T04:38:50.463Z,536
2017-09-13T04:40:05.105Z,616
2017-09-13T04:40:50.831Z,664
2017-09-13T04:41:50.847Z,716
2017-09-13T04:42:50.845Z,768
2017-09-13T04:44:50.592Z,868
2017-09-13T04:45:50.931Z,924
2017-09-13T04:47:50.970Z,1032
2017-09-13T04:48:50.988Z,1084
2017-09-13T04:49:50.690Z,1136
2017-09-13T04:51:51.043Z,1244
2017-09-13T04:53:05.682Z,1328
2017-09-13T04:53:51.074Z,1380
2017-09-13T04:54:50.805Z,1428
2017-09-13T04:56:05.740Z,1476
2017-09-13T04:56:51.146Z,1488
2017-09-13T04:57:50.862Z,1512
2017-09-13T04:58:50.891Z,1544
2017-09-13T04:59:50.893Z,1572
2017-09-13T05:00:50.925Z,1596
2017-09-13T05:02:05.555Z,1656
2017-09-13T05:02:50.965Z,1716
2017-09-13T05:03:50.995Z,1808
2017-09-13T05:04:51.012Z,1940
2017-09-13T05:05:51.022Z,2116
2017-09-13T05:09:05.703Z,2376
2017-09-13T05:09:51.099Z,2348
2017-09-13T05:10:50.814Z,2304
2017-09-13T05:11:51.462Z,2264
2017-09-13T05:12:51.461Z,2336
2017-09-13T05:13:51.510Z,2144
2017-09-13T05:14:51.533Z,2032
2017-09-13T05:16:06.143Z,1912
2017-09-13T05:16:50.939Z,1784
2017-09-13T05:17:51.283Z,1552
2017-09-13T05:18:51.601Z,1352
2017-09-13T05:19:51.628Z,1192
2017-09-13T05:20:51.629Z,1124
2017-09-13T05:21:51.668Z,1080
2017-09-13T05:22:51.676Z,1016
2017-09-13T05:25:06.333Z,860
2017-09-13T05:25:51.750Z,840
2017-09-13T05:26:51.451Z,828
2017-09-13T05:27:51.795Z,832
2017-09-13T05:29:06.412Z,820
2017-09-13T05:29:51.833Z,812
2017-09-13T05:30:51.865Z,804
2017-09-13T05:32:06.513Z,792
2017-09-13T05:32:51.886Z,784
2017-09-13T05:33:51.895Z,772
2017-09-13T05:34:51.618Z,768
2017-09-13T05:35:51.342Z,768
2017-09-13T05:36:51.668Z,776
2017-09-13T05:37:51.683Z,780
2017-09-13T05:40:06.345Z,776
2017-09-13T05:41:06.677Z,808
2017-09-13T05:41:51.462Z,860
2017-09-13T05:43:51.808Z,1036
2017-09-13T05:44:51.518Z,1152
2017-09-13T05:45:52.198Z,1268
2017-09-13T05:46:52.182Z,1348
2017-09-13T05:47:52.205Z,1436
2017-09-13T05:48:52.220Z,1560
2017-09-13T05:49:52.253Z,1740
2017-09-13T05:50:52.252Z,1916
2017-09-13T05:51:51.986Z,1996
2017-09-13T05:52:52.307Z,1956
2017-09-13T05:54:06.639Z,1844
2017-09-13T05:54:52.040Z,1784
2017-09-13T05:56:06.671Z,1740
2017-09-13T05:56:52.081Z,1808
2017-09-13T05:57:52.089Z,1852
2017-09-13T05:59:52.153Z,2108
2017-09-13T06:00:51.851Z,2340
2017-09-13T06:01:52.231Z,2488
2017-09-13T06:02:52.201Z,2520
2017-09-13T06:03:52.222Z,2496
2017-09-13T06:04:52.266Z,2496
2017-09-13T06:05:52.257Z,2484
2017-09-13T06:06:52.301Z,2412
2017-09-13T06:07:52.314Z,2312
2017-09-13T06:08:52.329Z,2212
2017-09-13T06:09:52.665Z,2108
2017-09-13T06:10:52.745Z,1956
2017-09-13T06:11:52.704Z,1836
2017-09-13T06:12:52.422Z,1724
2017-09-13T06:13:52.758Z,1660
2017-09-13T06:14:52.768Z,1592
2017-09-13T06:15:52.485Z,1428
2017-09-13T06:16:52.496Z,1212
2017-09-13T06:18:52.870Z,892
2017-09-13T06:19:52.884Z,796
2017-09-13T06:21:07.512Z,696
2017-09-13T06:21:52.295Z,648
2017-09-13T06:22:52.974Z,608
2017-09-13T06:23:52.983Z,604
2017-09-13T06:24:52.988Z,612
2017-09-13T06:25:52.711Z,600
2017-09-13T06:26:53.033Z,560
2017-09-13T06:28:07.352Z,488
2017-09-13T06:29:53.100Z,452
2017-09-13T06:30:53.115Z,500
2017-09-13T06:32:53.140Z,544
2017-09-13T06:33:52.860Z,528
2017-09-13T06:34:53.199Z,524
2017-09-13T06:35:53.224Z,564
2017-09-13T06:36:53.240Z,616
2017-09-13T06:37:53.260Z,680
2017-09-13T06:39:53.288Z,792
2017-09-13T06:40:53.335Z,864
2017-09-13T06:41:52.729Z,1012
2017-09-13T06:42:53.385Z,1212
2017-09-13T06:44:08.014Z,1428
2017-09-13T06:44:53.105Z,1532
2017-09-13T06:45:53.469Z,1700
2017-09-13T06:47:53.471Z,2076
2017-09-13T06:48:53.476Z,2096
2017-09-13T06:49:53.211Z,1992
2017-09-13T06:50:53.536Z,1808
2017-09-13T06:51:53.249Z,1628
2017-09-13T06:53:07.889Z,1596
2017-09-13T06:53:53.298Z,1664
2017-09-13T06:54:53.306Z,1824
2017-09-13T06:55:53.011Z,1940
2017-09-13T06:56:53.657Z,1904
2017-09-13T06:57:53.668Z,1776
2017-09-13T06:58:53.707Z,1652
2017-09-13T07:00:08.042Z,1528
2017-09-13T07:01:53.764Z,1504
2017-09-13T07:02:53.797Z,1584
2017-09-13T07:04:08.437Z,1876
2017-09-13T07:04:53.824Z,2244
2017-09-13T07:05:53.842Z,2804
2017-09-13T07:07:08.498Z,3324
2017-09-13T07:07:53.906Z,3488
2017-09-13T07:08:53.916Z,4012
2017-09-13T07:09:53.329Z,4452
2017-09-13T07:10:53.971Z,4136
2017-09-13T07:12:08.618Z,3420
2017-09-13T07:12:53.699Z,3164
2017-09-13T07:13:54.024Z,3040
2017-09-13T07:14:53.731Z,2972
2017-09-13T07:16:08.683Z,2916
2017-09-13T07:16:54.088Z,2876
2017-09-13T07:17:54.104Z,2824
2017-09-13T07:18:53.520Z,2808
2017-09-13T07:19:54.142Z,2840
2017-09-13T07:20:53.861Z,2904
2017-09-13T07:21:53.886Z,3092
2017-09-13T07:22:54.228Z,3396
2017-09-13T07:23:54.245Z,3672
2017-09-13T07:24:54.262Z,3864
2017-09-13T07:25:53.977Z,3884
2017-09-13T07:27:08.921Z,3508
2017-09-13T07:28:08.635Z,3264
2017-09-13T07:28:54.028Z,3020
2017-09-13T07:30:08.979Z,2728
2017-09-13T07:31:09.005Z,2776
2017-09-13T07:31:54.415Z,2828
2017-09-13T07:32:54.443Z,2592
2017-09-13T07:33:54.445Z,2096
2017-09-13T07:34:54.171Z,1820
2017-09-13T07:36:09.120Z,2524
2017-09-13T07:36:54.530Z,3520
2017-09-13T07:37:54.235Z,5252
2017-09-13T07:38:54.568Z,7752
2017-09-13T07:39:54.566Z,8156
2017-09-13T07:40:54.298Z,8000
2017-09-13T07:41:54.635Z,7044
2017-09-13T07:42:54.339Z,5588
2017-09-13T07:43:54.361Z,5192
2017-09-13T07:44:54.395Z,4748
2017-09-13T07:45:54.717Z,3948
2017-09-13T07:46:54.721Z,3932
2017-09-13T07:47:54.436Z,4348
2017-09-13T07:48:54.785Z,4780
2017-09-13T07:49:54.488Z,4540
2017-09-13T07:50:54.506Z,3900
2017-09-13T07:51:54.220Z,3196
2017-09-13T07:52:54.550Z,2904
2017-09-13T07:53:54.576Z,2912
2017-09-13T07:54:54.922Z,2932
2017-09-13T07:55:54.620Z,3092
2017-09-13T07:56:54.642Z,3468
2017-09-13T07:57:54.669Z,3836
2017-09-13T07:58:54.991Z,4032
2017-09-13T07:59:54.407Z,3940
2017-09-13T08:00:55.039Z,4060
2017-09-13T08:01:54.765Z,4604
2017-09-13T08:03:09.704Z,5180
2017-09-13T08:03:55.116Z,5224
2017-09-13T08:04:55.132Z,5064
2017-09-13T08:06:09.767Z,4632
2017-09-13T08:06:55.179Z,4424
2017-09-13T08:07:55.259Z,4140
2017-09-13T08:08:54.908Z,3888
2017-09-13T08:09:55.266Z,3624
2017-09-13T08:10:55.255Z,3416
2017-09-13T08:12:09.587Z,3260
2017-09-13T08:12:55.304Z,3140
2017-09-13T08:13:55.334Z,3008
2017-09-13T08:14:54.726Z,2868
2017-09-13T08:16:09.706Z,2624
2017-09-13T08:16:55.078Z,2560
2017-09-13T08:17:55.098Z,2368
2017-09-13T08:19:10.055Z,2260
2017-09-13T08:19:55.141Z,2416
2017-09-13T08:20:55.486Z,2596
2017-09-13T08:21:55.528Z,2640
2017-09-13T08:22:55.514Z,2536
2017-09-13T08:23:55.226Z,2424
2017-09-13T08:24:55.252Z,2388
2017-09-13T08:25:55.579Z,2352
2017-09-13T08:26:55.613Z,2376
2017-09-13T08:27:55.328Z,2364
2017-09-13T08:29:10.291Z,2184
2017-09-13T08:29:55.359Z,2164
2017-09-13T08:31:10.307Z,2192
2017-09-13T08:31:55.715Z,2196
2017-09-13T08:32:55.431Z,2228
2017-09-13T08:33:55.753Z,2304
2017-09-13T08:35:10.080Z,2488
2017-09-13T08:35:55.796Z,2544
2017-09-13T08:36:55.841Z,2556
2017-09-13T08:37:55.842Z,2624
2017-09-13T08:38:55.882Z,2672
2017-09-13T08:39:55.578Z,2832
2017-09-13T08:41:55.921Z,3032
2017-09-13T08:43:55.959Z,3568
2017-09-13T08:45:10.309Z,4056
2017-09-13T08:45:56.020Z,4272
2017-09-13T08:46:55.729Z,4208
2017-09-13T08:47:56.067Z,3816
2017-09-13T08:48:56.074Z,3748
2017-09-13T08:49:56.097Z,3504
2017-09-13T08:51:10.740Z,3512
2017-09-13T08:51:56.153Z,3860
2017-09-13T08:52:56.162Z,3400
2017-09-13T08:53:56.197Z,3816
2017-09-13T08:54:55.915Z,3192
2017-09-13T08:55:55.918Z,2624
2017-09-13T08:57:10.556Z,2420
2017-09-13T08:57:55.405Z,2388
2017-09-13T08:58:56.310Z,2152
2017-09-13T09:00:10.633Z,2776
2017-09-13T09:00:56.338Z,2828
2017-09-13T09:01:56.359Z,2472
2017-09-13T09:02:56.380Z,2488
2017-09-13T09:03:56.405Z,2116
2017-09-13T09:04:56.425Z,1776
2017-09-13T09:06:11.064Z,1420
2017-09-13T09:07:56.498Z,1296
2017-09-13T09:08:56.196Z,1372
2017-09-13T09:09:56.235Z,1896
2017-09-13T09:10:56.253Z,2104
2017-09-13T09:11:56.592Z,2304
2017-09-13T09:12:56.604Z,2360
2017-09-13T09:13:56.320Z,2588
2017-09-13T09:14:56.660Z,2400
2017-09-13T09:15:56.372Z,2496
2017-09-13T09:16:56.698Z,2216
2017-09-13T09:17:56.411Z,2204
2017-09-13T09:18:56.739Z,2084
2017-09-13T09:19:56.456Z,1672
2017-09-13T09:20:56.787Z,1880
2017-09-13T09:22:11.104Z,2260
2017-09-13T09:22:56.815Z,2448
2017-09-13T09:23:56.900Z,3300
2017-09-13T09:24:56.865Z,3916
2017-09-13T09:25:56.253Z,4728
2017-09-13T09:27:56.945Z,4140
2017-09-13T09:28:56.965Z,3984
2017-09-13T09:29:56.660Z,3568
2017-09-13T09:30:57.000Z,3712
2017-09-13T09:31:56.705Z,3804
2017-09-13T09:32:57.022Z,3560
2017-09-13T09:34:11.358Z,3356
2017-09-13T09:34:56.764Z,3092
2017-09-13T09:35:57.097Z,3256
2017-09-13T09:36:57.126Z,3360
2017-09-13T09:38:11.764Z,3916
2017-09-13T09:39:11.477Z,4016
2017-09-13T09:39:57.186Z,3568
2017-09-13T09:41:11.813Z,2960
2017-09-13T09:41:56.910Z,2760
2017-09-13T09:42:56.948Z,2988
2017-09-13T09:43:57.008Z,3064
2017-09-13T09:45:11.913Z,3008
2017-09-13T09:46:57.341Z,2780
2017-09-13T09:47:57.113Z,3264
2017-09-13T09:48:57.379Z,3860
2017-09-13T09:49:57.099Z,4980
2017-09-13T09:50:57.110Z,5340
2017-09-13T09:54:12.108Z,4304
2017-09-13T09:54:56.905Z,4612
2017-09-13T09:55:57.213Z,5584
2017-09-13T09:56:57.570Z,6196
2017-09-13T09:57:57.574Z,6788
2017-09-13T09:59:11.900Z,6292
2017-09-13T09:59:57.637Z,5672
2017-09-13T10:00:57.632Z,5604
2017-09-13T10:01:57.359Z,5748
2017-09-13T10:04:57.728Z,5136
2017-09-13T10:05:57.758Z,5916
2017-09-13T10:06:57.457Z,8352
2017-09-13T10:07:57.798Z,13108
2017-09-13T10:08:57.213Z,19488
2017-09-13T10:10:12.512Z,21376
2017-09-13T10:11:57.569Z,12080
2017-09-13T10:12:57.594Z,10424
2017-09-13T10:13:57.941Z,9120
2017-09-13T10:14:58.044Z,8992
2017-09-13T10:15:57.984Z,11812
2017-09-13T10:16:57.980Z,12548
2017-09-13T10:17:58.024Z,12876
2017-09-13T10:18:57.416Z,14288
2017-09-13T10:19:58.069Z,16736
2017-09-13T10:20:57.794Z,10768
2017-09-13T10:21:57.801Z,8236
2017-09-13T10:23:12.767Z,16368
2017-09-13T10:23:57.883Z,17000
2017-09-13T10:24:58.178Z,16884
2017-09-13T10:26:12.509Z,15880
2017-09-13T10:26:57.608Z,15060
2017-09-13T10:27:57.941Z,12044
2017-09-13T10:28:57.965Z,10580
2017-09-13T10:29:58.016Z,18272
2017-09-13T10:30:58.318Z,16388
2017-09-13T10:31:58.342Z,14016
2017-09-13T10:32:58.368Z,11816
2017-09-13T10:33:58.404Z,8468
2017-09-13T10:34:58.435Z,14480
2017-09-13T10:35:58.437Z,14472
2017-09-13T10:36:58.472Z,8480
2017-09-13T10:37:58.537Z,11088
2017-09-13T10:38:58.512Z,13436
2017-09-13T10:39:58.526Z,12148
2017-09-13T10:41:13.169Z,11140
2017-09-13T10:41:58.643Z,10736
2017-09-13T10:43:13.217Z,10384
2017-09-13T10:43:58.327Z,9588
2017-09-13T10:44:58.670Z,7372
2017-09-13T10:45:58.682Z,7240
2017-09-13T10:47:13.325Z,9812
2017-09-13T10:47:58.715Z,10384
2017-09-13T10:49:58.781Z,10440
2017-09-13T10:50:58.831Z,9544
2017-09-13T10:51:58.819Z,8480
2017-09-13T10:52:58.230Z,7284
2017-09-13T10:53:58.872Z,5296
2017-09-13T10:54:58.889Z,4264
2017-09-13T10:55:58.610Z,4248
2017-09-13T10:56:58.634Z,4052
2017-09-13T10:58:13.591Z,5328
2017-09-13T10:58:58.723Z,6552
2017-09-13T10:59:59.032Z,9024
2017-09-13T11:00:58.723Z,11232
2017-09-13T11:01:58.757Z,13796
2017-09-13T11:02:58.462Z,10936
2017-09-13T11:04:58.846Z,7452
2017-09-13T11:05:59.152Z,6936
2017-09-13T11:06:58.858Z,6764
2017-09-13T11:07:59.199Z,5260
2017-09-13T11:08:58.922Z,6660
2017-09-13T11:09:58.942Z,6740
2017-09-13T11:10:58.981Z,6072
2017-09-13T11:11:58.985Z,5744
2017-09-13T11:13:13.951Z,5564
2017-09-13T11:13:59.030Z,5216
2017-09-13T11:15:59.406Z,5868
2017-09-13T11:16:59.156Z,5276
2017-09-13T11:17:59.128Z,6024
2017-09-13T11:20:13.789Z,8280
2017-09-13T11:20:59.213Z,7688
2017-09-13T11:22:14.152Z,6788
2017-09-13T11:22:59.254Z,4948
2017-09-13T11:23:59.574Z,6396
2017-09-13T11:24:59.620Z,6324
2017-09-13T11:25:59.629Z,6280
2017-09-13T11:27:59.718Z,6188
2017-09-13T11:29:14.015Z,5940
2017-09-13T11:29:59.418Z,5824
2017-09-13T11:30:59.129Z,5716
2017-09-13T11:31:59.779Z,5824
2017-09-13T11:32:59.806Z,6160
2017-09-13T11:33:59.209Z,6348
2017-09-13T11:34:59.223Z,6616
2017-09-13T11:36:14.188Z,4560
2017-09-13T11:36:59.274Z,4936
2017-09-13T11:38:14.536Z,7196
2017-09-13T11:38:59.331Z,7628
2017-09-13T11:39:59.987Z,9564
2017-09-13T11:41:59.397Z,7520
2017-09-13T11:43:14.354Z,8252
2017-09-13T11:44:00.047Z,8168
2017-09-13T11:45:14.399Z,10704
2017-09-13T11:46:00.108Z,8604
2017-09-13T11:47:00.147Z,8156
2017-09-13T11:47:59.533Z,7572
2017-09-13T11:49:00.176Z,7480
2017-09-13T11:50:00.218Z,9396
2017-09-13T11:51:00.236Z,6964
2017-09-13T11:52:00.264Z,5396
2017-09-13T11:52:59.967Z,6256
2017-09-13T11:53:59.998Z,9028
2017-09-13T11:55:00.017Z,7040
2017-09-13T11:57:00.387Z,8432
2017-09-13T11:58:00.401Z,7364
2017-09-13T11:59:00.170Z,6912
2017-09-13T12:00:00.455Z,4892
2017-09-13T12:01:15.082Z,5992
2017-09-13T12:01:59.878Z,7596
2017-09-13T12:03:15.152Z,8204
2017-09-13T12:04:00.597Z,9420
2017-09-13T12:05:00.262Z,8468
2017-09-13T12:06:00.596Z,8920
2017-09-13T12:07:15.256Z,8104
2017-09-13T12:08:00.339Z,7632
2017-09-13T12:09:00.357Z,7648
2017-09-13T12:11:00.749Z,7016
2017-09-13T12:12:00.747Z,6448
2017-09-13T12:13:00.768Z,5868
2017-09-13T12:15:00.829Z,7648
2017-09-13T12:16:15.459Z,8208
2017-09-13T12:17:00.868Z,10268
2017-09-13T12:18:00.608Z,7356
2017-09-13T12:19:00.608Z,6948
2017-09-13T12:20:00.632Z,7160
2017-09-13T12:21:00.969Z,6720
2017-09-13T12:22:01.004Z,5744
2017-09-13T12:23:01.080Z,6384
2017-09-13T12:25:01.057Z,5412
2017-09-13T12:26:01.086Z,6640
2017-09-13T12:27:01.110Z,7272
2017-09-13T12:28:00.819Z,8696
2017-09-13T12:29:01.152Z,10312
2017-09-13T12:30:01.212Z,8848
2017-09-13T12:31:01.216Z,8540
2017-09-13T12:32:00.918Z,8544
2017-09-13T12:33:01.274Z,7328
2017-09-13T12:35:01.305Z,4920
2017-09-13T12:36:01.017Z,4472
2017-09-13T12:37:01.366Z,4264
2017-09-13T12:38:01.083Z,4968
2017-09-13T12:39:01.132Z,4900
2017-09-13T12:40:01.434Z,6368
2017-09-13T12:41:01.469Z,9468
2017-09-13T12:42:01.480Z,6324
2017-09-13T12:43:01.204Z,8144
2017-09-13T12:44:16.148Z,7716
2017-09-13T12:45:16.189Z,6712
2017-09-13T12:46:01.578Z,6084
2017-09-13T12:47:01.607Z,5792
2017-09-13T12:48:16.257Z,5664
2017-09-13T12:49:01.660Z,5676
2017-09-13T12:50:01.685Z,5712
2017-09-13T12:51:01.724Z,4324
2017-09-13T12:52:01.729Z,3824
2017-09-13T12:53:01.752Z,4716
2017-09-13T12:55:01.791Z,7792
2017-09-13T12:56:16.125Z,9896
2017-09-13T12:57:16.476Z,9628
2017-09-13T12:58:01.886Z,8760
2017-09-13T12:59:01.941Z,4948
2017-09-13T13:00:01.674Z,6532
2017-09-13T13:01:01.938Z,4496
2017-09-13T13:02:01.970Z,4932
2017-09-13T13:03:02.006Z,6312
2017-09-13T13:04:16.656Z,4008
2017-09-13T13:05:16.657Z,6172
2017-09-13T13:06:01.759Z,6320
2017-09-13T13:07:02.117Z,6248
2017-09-13T13:08:02.122Z,6252
2017-09-13T13:09:02.157Z,6048
2017-09-13T13:10:01.849Z,6052
2017-09-13T13:11:01.900Z,6348
2017-09-13T13:12:02.220Z,4148
2017-09-13T13:13:02.229Z,3684
2017-09-13T13:14:02.274Z,3508
2017-09-13T13:15:02.295Z,3676
2017-09-13T13:16:02.318Z,4300
2017-09-13T13:17:16.652Z,5968
2017-09-13T13:18:01.749Z,6100
2017-09-13T13:19:02.393Z,8808
2017-09-13T13:20:17.033Z,8340
2017-09-13T13:21:02.423Z,8052
2017-09-13T13:22:16.769Z,7540
2017-09-13T13:23:02.481Z,7376
2017-09-13T13:24:02.508Z,7444
2017-09-13T13:26:02.564Z,5484
2017-09-13T13:27:02.593Z,7240
2017-09-13T13:28:01.982Z,6876
2017-09-13T13:29:02.646Z,6628
2017-09-13T13:30:02.660Z,6548
2017-09-13T13:31:02.381Z,6408
2017-09-13T13:32:02.718Z,6276
2017-09-13T13:33:02.422Z,3828
2017-09-13T13:34:17.371Z,6524
2017-09-13T13:35:02.795Z,6780
2017-09-13T13:36:32.051Z,6312
2017-09-13T13:37:02.521Z,6264
2017-09-13T13:38:02.553Z,6280
2017-09-13T13:39:02.257Z,6068
2017-09-13T13:40:02.892Z,6036
2017-09-13T13:41:02.627Z,5880
2017-09-13T13:42:02.959Z,5864
2017-09-13T13:43:02.978Z,5876
2017-09-13T13:44:03.006Z,5976
2017-09-13T13:45:17.654Z,6144
2017-09-13T13:46:03.041Z,6256
2017-09-13T13:47:03.080Z,6208
2017-09-13T13:48:03.102Z,5876
2017-09-13T13:49:03.131Z,6076
2017-09-13T13:50:17.460Z,6252
2017-09-13T13:52:03.185Z,5708
2017-09-13T13:53:02.937Z,6136
2017-09-13T13:54:02.936Z,3740
2017-09-13T13:55:02.966Z,6336
2017-09-13T13:56:03.303Z,6548
2017-09-13T13:57:02.705Z,6176
2017-09-13T13:58:03.364Z,6396
2017-09-13T13:59:03.064Z,3820
2017-09-13T14:00:18.018Z,6184
2017-09-13T14:01:03.423Z,6460
2017-09-13T14:02:03.474Z,6180
2017-09-13T14:03:02.855Z,6068
2017-09-13T14:04:03.497Z,3752
2017-09-13T14:05:03.202Z,6204
2017-09-13T14:06:02.926Z,6020
2017-09-13T14:07:03.569Z,6056
2017-09-13T14:08:03.601Z,4248
2017-09-13T14:09:03.611Z,5976
2017-09-13T14:10:03.657Z,6532
2017-09-13T14:11:03.688Z,6524
2017-09-13T14:12:03.694Z,4444
2017-09-13T14:13:03.739Z,6612
2017-09-13T14:14:18.365Z,5560
2017-09-13T14:15:03.464Z,6976
2017-09-13T14:16:03.482Z,7560
2017-09-13T14:17:03.821Z,7484
2017-09-13T14:18:03.860Z,6952
2017-09-13T14:20:03.894Z,6072
2017-09-13T14:21:03.932Z,6340
2017-09-13T14:22:03.635Z,4072
2017-09-13T14:23:18.578Z,6192
2017-09-13T14:24:03.689Z,6152
2017-09-13T14:25:04.021Z,6224
2017-09-13T14:26:03.730Z,4256
2017-09-13T14:27:03.760Z,6328
2017-09-13T14:28:04.097Z,6060
2017-09-13T14:29:03.812Z,5848
2017-09-13T14:30:03.838Z,5668
2017-09-13T14:31:03.877Z,5720
2017-09-13T14:32:04.191Z,5608
2017-09-13T14:33:04.212Z,5524
2017-09-13T14:34:18.860Z,5448
2017-09-13T14:35:03.957Z,5468
2017-09-13T14:36:03.675Z,5428
2017-09-13T14:37:04.303Z,3948
2017-09-13T14:38:04.031Z,3008
2017-09-13T14:39:18.979Z,2836
2017-09-13T14:40:04.082Z,2832
2017-09-13T14:41:04.118Z,2852